createdAt,value
2022-12-07T00:01:19.235Z,3.77
2022-12-07T00:03:48.892Z,4.07
2022-12-07T00:08:44.245Z,4.03
2022-12-07T00:11:12.712Z,3.57
2022-12-07T00:13:40.409Z,3.70
2022-12-07T00:16:09.605Z,4.10
2022-12-07T00:18:36.605Z,3.90
2022-12-07T00:21:06.788Z,3.90
2022-12-07T00:23:34.021Z,3.67
2022-12-07T00:26:04.990Z,3.30
2022-12-07T00:28:31.515Z,3.93
2022-12-07T00:31:01.382Z,3.90
2022-12-07T00:33:29.539Z,3.87
2022-12-07T00:35:56.828Z,3.57
2022-12-07T00:38:24.957Z,3.97
2022-12-07T00:40:56.080Z,3.77
2022-12-07T00:43:22.605Z,3.90
2022-12-07T00:45:49.147Z,3.70
2022-12-07T00:48:15.795Z,3.67
2022-12-07T00:50:42.330Z,4.13
2022-12-07T00:53:08.886Z,3.53
2022-12-07T00:55:37.190Z,4.07
2022-12-07T00:58:04.061Z,4.43
2022-12-07T01:00:31.061Z,3.67
2022-12-07T01:02:57.742Z,3.90
2022-12-07T01:05:24.312Z,3.17
2022-12-07T01:07:50.955Z,4.37
2022-12-07T01:10:17.571Z,3.63
2022-12-07T01:12:45.526Z,4.17
2022-12-07T01:15:12.117Z,3.90
2022-12-07T01:17:38.631Z,3.40
2022-12-07T01:20:08.245Z,3.80
2022-12-07T01:22:37.900Z,3.63
2022-12-07T01:25:05.341Z,3.50
2022-12-07T01:27:31.884Z,4.37
2022-12-07T01:30:00.091Z,3.43
2022-12-07T01:32:26.889Z,3.03
2022-12-07T01:34:53.552Z,3.10
2022-12-07T01:37:20.163Z,3.77
2022-12-07T01:39:49.568Z,3.70
2022-12-07T01:42:16.271Z,4.13
2022-12-07T01:45:35.967Z,3.23
2022-12-07T01:50:32.704Z,3.57
2022-12-07T01:53:01.311Z,3.50
2022-12-07T01:55:27.996Z,3.50
2022-12-07T01:57:56.469Z,3.57
2022-12-07T02:00:24.578Z,3.70
2022-12-07T02:02:56.259Z,3.47
2022-12-07T02:05:25.163Z,4.10
2022-12-07T02:07:54.027Z,4.85
2022-12-07T02:10:22.893Z,3.90
2022-12-07T02:12:55.154Z,3.58
2022-12-07T02:15:27.889Z,3.73
2022-12-07T02:18:01.855Z,4.13
2022-12-07T02:20:34.109Z,4.27
2022-12-07T02:23:39.081Z,3.60
2022-12-07T02:26:28.806Z,3.27
2022-12-07T02:31:32.071Z,4.10
2022-12-07T02:34:06.301Z,3.80
2022-12-07T02:36:40.563Z,3.70
2022-12-07T02:39:12.475Z,3.33
2022-12-07T02:41:44.201Z,4.30
2022-12-07T02:44:15.459Z,3.47
2022-12-07T02:46:45.379Z,4.20
2022-12-07T02:49:12.328Z,3.60
2022-12-07T02:51:41.910Z,3.90
2022-12-07T02:54:13.124Z,3.20
2022-12-07T02:56:46.832Z,3.33
2022-12-07T02:59:22.425Z,3.40
2022-12-07T03:02:00.768Z,3.40
2022-12-07T03:04:38.691Z,3.93
2022-12-07T03:07:12.440Z,3.47
2022-12-07T03:09:45.968Z,3.60
2022-12-07T03:12:17.833Z,3.10
2022-12-07T03:14:50.977Z,3.23
2022-12-07T03:17:22.837Z,4.13
2022-12-07T03:19:52.897Z,3.67
2022-12-07T03:22:20.520Z,3.50
2022-12-07T03:24:53.350Z,3.73
2022-12-07T03:27:22.413Z,3.43
2022-12-07T03:29:55.243Z,3.67
2022-12-07T03:32:28.092Z,3.40
2022-12-07T03:35:01.422Z,3.70
2022-12-07T03:37:34.177Z,3.60
2022-12-07T03:40:08.107Z,3.53
2022-12-07T03:42:35.081Z,3.37
2022-12-07T03:45:04.887Z,4.23
2022-12-07T03:47:35.795Z,3.90
2022-12-07T03:50:08.734Z,4.10
2022-12-07T03:52:41.393Z,5.00
2022-12-07T03:55:12.665Z,4.00
2022-12-07T03:57:41.107Z,4.27
2022-12-07T04:00:11.501Z,3.30
2022-12-07T04:02:38.635Z,3.70
2022-12-07T04:05:05.974Z,3.87
2022-12-07T04:07:32.568Z,3.67
2022-12-07T04:09:59.313Z,3.83
2022-12-07T04:12:26.065Z,3.60
2022-12-07T04:14:52.596Z,3.80
2022-12-07T04:17:20.481Z,3.87
2022-12-07T04:19:47.005Z,3.80
2022-12-07T04:22:13.545Z,3.77
2022-12-07T04:24:40.102Z,3.80
2022-12-07T04:27:06.644Z,3.67
2022-12-07T04:29:33.160Z,3.80
2022-12-07T04:31:59.708Z,3.83
2022-12-07T04:34:27.674Z,4.00
2022-12-07T04:36:54.325Z,3.70
2022-12-07T04:39:22.829Z,4.20
2022-12-07T04:41:49.623Z,4.17
2022-12-07T04:44:17.255Z,3.47
2022-12-07T04:46:44.693Z,4.43
2022-12-07T04:49:11.780Z,3.80
2022-12-07T04:51:39.865Z,3.57
2022-12-07T04:54:06.467Z,4.30
2022-12-07T04:56:33.335Z,4.20
2022-12-07T04:58:59.889Z,3.30
2022-12-07T05:01:26.503Z,4.43
2022-12-07T05:03:53.083Z,4.20
2022-12-07T05:06:20.176Z,4.20
2022-12-07T05:08:48.407Z,4.23
2022-12-07T05:11:34.310Z,3.47
2022-12-07T05:14:01.323Z,4.27
2022-12-07T05:16:28.629Z,5.00
2022-12-07T05:18:55.541Z,4.30
2022-12-07T05:21:22.497Z,4.57
2022-12-07T05:23:50.417Z,4.70
2022-12-07T05:26:17.427Z,4.43
2022-12-07T05:28:44.080Z,4.20
2022-12-07T05:31:10.729Z,4.13
2022-12-07T05:33:37.336Z,3.53
2022-12-07T05:36:06.462Z,4.20
2022-12-07T05:38:33.697Z,4.63
2022-12-07T05:41:03.494Z,4.27
2022-12-07T05:43:30.276Z,3.80
2022-12-07T05:45:57.188Z,3.90
2022-12-07T05:48:24.136Z,4.00
2022-12-07T05:50:51.073Z,4.63
2022-12-07T05:53:22.789Z,5.60
2022-12-07T05:55:49.852Z,7.03
2022-12-07T05:58:36.568Z,7.93
2022-12-07T06:01:03.144Z,7.70
2022-12-07T06:03:29.731Z,8.50
2022-12-07T06:05:56.421Z,8.63
2022-12-07T06:08:23.214Z,8.10
2022-12-07T06:11:09.781Z,8.40
2022-12-07T06:13:40.099Z,7.90
2022-12-07T06:16:10.353Z,7.43
2022-12-07T06:18:36.919Z,8.73
2022-12-07T06:21:03.633Z,7.57
2022-12-07T06:23:30.186Z,8.03
2022-12-07T06:25:56.739Z,8.47
2022-12-07T06:28:23.286Z,8.10
2022-12-07T06:30:59.377Z,7.73
2022-12-07T06:33:25.928Z,7.97
2022-12-07T06:35:52.570Z,7.70
2022-12-07T06:38:19.079Z,7.73
2022-12-07T06:40:45.652Z,7.97
2022-12-07T06:43:12.299Z,8.50
2022-12-07T06:45:38.919Z,7.67
2022-12-07T06:48:06.924Z,8.33
2022-12-07T06:50:33.693Z,7.83
2022-12-07T06:53:00.227Z,8.20
2022-12-07T06:55:26.806Z,7.53
2022-12-07T06:57:53.368Z,9.00
2022-12-07T07:00:22.311Z,7.03
2022-12-07T07:02:49.379Z,9.85
2022-12-07T07:05:17.700Z,11.07
2022-12-07T07:08:05.308Z,8.97
2022-12-07T07:10:30.765Z,11.50
2022-12-07T07:12:57.865Z,10.53
2022-12-07T07:15:24.586Z,9.80
2022-12-07T07:17:51.132Z,6.70
2022-12-07T07:20:19.213Z,8.53
2022-12-07T07:22:45.862Z,8.27
2022-12-07T07:25:12.446Z,9.00
2022-12-07T07:27:38.955Z,8.03
2022-12-07T07:30:06.700Z,7.60
2022-12-07T07:32:33.398Z,8.37
2022-12-07T07:35:00.056Z,7.93
2022-12-07T07:37:27.966Z,7.50
2022-12-07T07:39:54.596Z,7.57
2022-12-07T07:42:21.119Z,8.37
2022-12-07T07:44:47.679Z,7.77
2022-12-07T07:47:14.412Z,8.07
2022-12-07T07:49:46.225Z,7.67
2022-12-07T07:52:14.549Z,7.50
2022-12-07T07:54:42.421Z,7.70
2022-12-07T07:57:08.954Z,7.23
2022-12-07T07:59:35.485Z,7.17
2022-12-07T08:02:02.098Z,7.80
2022-12-07T08:04:28.730Z,7.77
2022-12-07T08:06:55.302Z,7.10
2022-12-07T08:09:22.104Z,7.33
2022-12-07T08:11:49.979Z,7.67
2022-12-07T08:14:16.606Z,7.23
2022-12-07T08:16:43.155Z,7.57
2022-12-07T08:19:09.698Z,7.60
2022-12-07T08:21:36.274Z,7.07
2022-12-07T08:24:02.845Z,6.93
2022-12-07T08:26:29.402Z,7.17
2022-12-07T08:28:57.289Z,8.03
2022-12-07T08:31:23.973Z,7.07
2022-12-07T08:33:50.570Z,7.10
2022-12-07T08:36:18.148Z,6.53
2022-12-07T08:39:01.398Z,6.97
2022-12-07T08:41:31.890Z,7.13
2022-12-07T08:43:59.763Z,6.97
2022-12-07T08:46:34.176Z,7.60
2022-12-07T08:49:06.701Z,6.90
2022-12-07T08:51:33.709Z,7.20
2022-12-07T08:54:04.452Z,6.20
2022-12-07T08:56:31.178Z,6.93
2022-12-07T08:58:59.745Z,6.80
2022-12-07T09:01:26.380Z,6.47
2022-12-07T09:03:52.970Z,7.03
2022-12-07T09:06:20.056Z,6.60
2022-12-07T09:08:49.060Z,6.70
2022-12-07T09:11:15.637Z,6.18
2022-12-07T09:13:42.197Z,6.60
2022-12-07T09:16:10.204Z,6.27
2022-12-07T09:18:36.804Z,6.47
2022-12-07T09:21:03.429Z,6.00
2022-12-07T09:23:29.969Z,5.80
2022-12-07T09:26:00.306Z,6.37
2022-12-07T09:28:27.038Z,5.70
2022-12-07T09:31:22.092Z,6.43
2022-12-07T09:33:42.435Z,5.80
2022-12-07T09:36:10.662Z,6.05
2022-12-07T09:38:37.210Z,5.67
2022-12-07T09:41:07.843Z,5.63
2022-12-07T09:43:36.909Z,5.73
2022-12-07T09:46:04.654Z,5.88
2022-12-07T09:48:33.891Z,5.37
2022-12-07T09:51:02.192Z,5.93
2022-12-07T09:53:33.696Z,5.60
2022-12-07T09:56:01.927Z,6.10
2022-12-07T09:58:30.785Z,5.87
2022-12-07T10:00:59.742Z,5.75
2022-12-07T10:03:27.938Z,5.70
2022-12-07T10:05:55.003Z,5.37
2022-12-07T10:08:23.045Z,5.73
2022-12-07T10:10:52.736Z,5.10
2022-12-07T10:13:21.745Z,5.63
2022-12-07T10:15:53.320Z,5.82
2022-12-07T10:18:28.936Z,6.03
2022-12-07T10:21:11.549Z,5.70
2022-12-07T10:23:41.426Z,5.57
2022-12-07T10:26:39.608Z,6.03
2022-12-07T10:29:17.245Z,5.50
2022-12-07T10:31:45.900Z,5.43
2022-12-07T10:34:23.235Z,5.50
2022-12-07T10:36:49.891Z,5.80
2022-12-07T10:39:20.429Z,4.57
2022-12-07T10:41:58.670Z,5.30
2022-12-07T10:44:27.533Z,6.07
2022-12-07T10:47:09.553Z,4.88
2022-12-07T10:50:08.957Z,5.07
2022-12-07T10:52:58.538Z,5.35
2022-12-07T10:55:32.993Z,4.53
2022-12-07T10:58:17.837Z,5.27
2022-12-07T11:00:53.861Z,5.37
2022-12-07T11:03:38.842Z,4.80
2022-12-07T11:06:18.063Z,4.87
2022-12-07T11:09:00.092Z,4.93
2022-12-07T11:11:35.006Z,4.40
2022-12-07T11:14:11.607Z,5.30
2022-12-07T11:16:51.023Z,5.17
2022-12-07T11:19:33.321Z,5.53
2022-12-07T11:22:04.777Z,4.70
2022-12-07T11:24:41.704Z,4.77
2022-12-07T11:27:22.574Z,5.60
2022-12-07T11:30:03.565Z,5.20
2022-12-07T11:32:46.735Z,4.77
2022-12-07T11:35:25.455Z,5.03
2022-12-07T11:37:59.109Z,5.57
2022-12-07T11:40:29.130Z,5.13
2022-12-07T11:43:02.817Z,5.00
2022-12-07T11:45:33.228Z,4.77
2022-12-07T11:48:03.332Z,4.70
2022-12-07T11:50:37.133Z,4.90
2022-12-07T11:53:10.896Z,5.00
2022-12-07T11:55:44.321Z,7.43
2022-12-07T11:58:36.513Z,5.23
2022-12-07T12:01:14.764Z,4.87
2022-12-07T12:03:48.242Z,5.50
2022-12-07T12:06:20.370Z,10.00
2022-12-07T12:14:52.540Z,6.90
2022-12-07T12:17:48.189Z,4.87
2022-12-07T12:20:24.333Z,4.80
2022-12-07T12:22:55.362Z,5.90
2022-12-07T12:25:26.328Z,5.03
2022-12-07T12:27:56.684Z,4.63
2022-12-07T12:30:33.243Z,4.67
2022-12-07T12:33:06.237Z,4.37
2022-12-07T12:35:35.588Z,4.20
2022-12-07T12:38:25.590Z,4.80
2022-12-07T12:40:52.234Z,4.77
2022-12-07T12:43:41.221Z,4.30
2022-12-07T12:46:49.654Z,4.32
2022-12-07T12:49:59.926Z,5.17
2022-12-07T12:52:51.328Z,3.93
2022-12-07T12:55:47.691Z,4.23
2022-12-07T12:58:51.704Z,3.97
2022-12-07T13:01:44.577Z,4.13
2022-12-07T13:04:34.392Z,3.00
2022-12-07T13:07:01.009Z,4.13
2022-12-07T13:09:30.716Z,4.07
2022-12-07T13:14:43.849Z,3.90
2022-12-07T13:17:13.245Z,4.23
2022-12-07T13:19:58.443Z,3.83
2022-12-07T13:22:53.793Z,4.47
2022-12-07T13:25:34.574Z,3.63
2022-12-07T13:28:08.393Z,4.27
2022-12-07T13:30:46.478Z,3.97
2022-12-07T13:33:17.450Z,3.83
2022-12-07T13:35:44.258Z,3.83
2022-12-07T13:38:24.403Z,4.23
2022-12-07T13:41:14.720Z,4.03
2022-12-07T13:43:50.512Z,3.90
2022-12-07T13:46:21.636Z,4.07
2022-12-07T13:48:51.207Z,3.67
2022-12-07T13:51:20.236Z,3.80
2022-12-07T13:53:52.752Z,4.05
2022-12-07T13:56:22.985Z,4.03
2022-12-07T13:58:49.747Z,3.77
2022-12-07T14:01:18.461Z,6.03
2022-12-07T14:03:45.048Z,4.10
2022-12-07T14:06:18.686Z,3.70
2022-12-07T14:08:45.600Z,3.50
2022-12-07T14:11:19.480Z,4.10
2022-12-07T14:13:56.519Z,3.80
2022-12-07T14:16:27.076Z,4.20
2022-12-07T14:18:53.806Z,3.83
2022-12-07T14:21:24.283Z,3.50
2022-12-07T14:24:11.874Z,3.40
2022-12-07T14:26:39.956Z,3.70
2022-12-07T14:29:33.535Z,3.73
2022-12-07T14:32:19.993Z,3.93
2022-12-07T14:35:03.356Z,3.30
2022-12-07T14:37:31.624Z,3.80
2022-12-07T14:39:58.424Z,4.07
2022-12-07T14:42:28.572Z,3.93
2022-12-07T14:44:55.484Z,3.23
2022-12-07T14:50:12.758Z,3.40
2022-12-07T14:55:30.980Z,3.78
2022-12-07T14:57:59.521Z,3.90
2022-12-07T15:00:28.604Z,3.50
2022-12-07T15:02:56.095Z,3.65
2022-12-07T15:05:23.078Z,3.87
2022-12-07T15:07:51.774Z,3.33
2022-12-07T15:10:24.279Z,3.30
2022-12-07T15:12:51.598Z,3.83
2022-12-07T15:15:18.484Z,3.83
2022-12-07T15:17:45.102Z,3.33
2022-12-07T15:20:14.556Z,3.30
2022-12-07T15:22:41.241Z,3.38
2022-12-07T15:25:13.231Z,3.13
2022-12-07T15:27:39.806Z,2.97
2022-12-07T15:30:07.800Z,3.67
2022-12-07T15:32:34.549Z,3.03
2022-12-07T15:35:01.562Z,3.20
2022-12-07T15:37:28.390Z,3.33
2022-12-07T15:39:55.110Z,3.47
2022-12-07T15:42:23.017Z,3.13
2022-12-07T15:45:05.107Z,3.57
2022-12-07T15:47:34.550Z,3.10
2022-12-07T15:50:09.470Z,2.93
2022-12-07T15:52:36.738Z,2.83
2022-12-07T15:55:04.454Z,3.27
2022-12-07T15:57:33.007Z,3.10
2022-12-07T16:00:00.004Z,2.67
2022-12-07T16:02:26.800Z,3.10
2022-12-07T16:04:54.223Z,3.10
2022-12-07T16:07:20.831Z,2.90
2022-12-07T16:09:47.455Z,2.40
2022-12-07T16:12:14.980Z,3.00
2022-12-07T16:14:43.533Z,2.50
2022-12-07T16:17:10.982Z,2.80
2022-12-07T16:19:38.168Z,2.80
2022-12-07T16:22:05.446Z,3.07
2022-12-07T16:24:32.302Z,2.97
2022-12-07T16:26:58.932Z,3.10
2022-12-07T16:29:25.547Z,2.87
2022-12-07T16:31:53.534Z,3.57
2022-12-07T16:34:20.167Z,3.00
2022-12-07T16:37:04.319Z,2.93
2022-12-07T16:39:31.935Z,2.70
2022-12-07T16:41:58.470Z,2.70
2022-12-07T16:44:25.167Z,3.13
2022-12-07T16:46:53.218Z,2.57
2022-12-07T16:49:20.450Z,2.60
2022-12-07T16:52:03.102Z,2.57
2022-12-07T16:57:03.660Z,2.53
2022-12-07T16:59:30.249Z,3.03
2022-12-07T17:01:58.148Z,2.70
2022-12-07T17:04:24.734Z,2.50
2022-12-07T17:06:51.332Z,2.80
2022-12-07T17:09:21.121Z,2.70
2022-12-07T17:11:48.743Z,2.90
2022-12-07T17:14:33.895Z,2.50
2022-12-07T17:17:02.044Z,2.50
2022-12-07T17:19:28.680Z,2.77
2022-12-07T17:21:55.194Z,2.67
2022-12-07T17:24:21.739Z,2.70
2022-12-07T17:26:48.604Z,3.00
2022-12-07T17:29:18.136Z,2.73
2022-12-07T17:31:51.018Z,2.50
2022-12-07T17:34:19.823Z,2.27
2022-12-07T17:36:46.623Z,2.20
2022-12-07T17:39:17.133Z,2.57
2022-12-07T17:42:02.329Z,2.10
2022-12-07T17:44:29.356Z,2.40
2022-12-07T17:46:58.873Z,2.50
2022-12-07T17:49:27.607Z,2.55
2022-12-07T17:52:13.336Z,2.53
2022-12-07T17:54:39.975Z,2.50
2022-12-07T17:57:06.649Z,2.30
2022-12-07T17:59:33.266Z,2.43
2022-12-07T18:01:59.951Z,2.60
2022-12-07T18:04:27.922Z,3.10
2022-12-07T18:06:54.461Z,2.17
2022-12-07T18:09:22.279Z,2.30
2022-12-07T18:11:49.000Z,2.53
2022-12-07T18:14:16.649Z,2.50
2022-12-07T18:16:43.520Z,2.37
2022-12-07T18:19:13.387Z,2.27
2022-12-07T18:21:41.997Z,2.50
2022-12-07T18:24:09.912Z,2.27
2022-12-07T18:26:37.427Z,2.40
2022-12-07T18:29:05.763Z,2.10
2022-12-07T18:31:32.841Z,2.33
2022-12-07T18:34:01.733Z,2.77
2022-12-07T18:36:28.405Z,2.40
2022-12-07T18:38:56.566Z,2.13
2022-12-07T18:41:23.763Z,2.40
2022-12-07T18:43:50.346Z,2.07
2022-12-07T18:46:19.299Z,2.17
2022-12-07T18:48:46.617Z,2.47
2022-12-07T18:51:16.679Z,2.47
2022-12-07T18:53:43.555Z,2.40
2022-12-07T18:56:16.783Z,2.57
2022-12-07T18:59:03.811Z,2.37
2022-12-07T19:01:31.006Z,2.17
2022-12-07T19:03:57.888Z,2.20
2022-12-07T19:06:24.788Z,2.50
2022-12-07T19:08:51.332Z,2.87
2022-12-07T19:11:38.446Z,2.27
2022-12-07T19:14:05.049Z,2.47
2022-12-07T19:16:31.953Z,2.50
2022-12-07T19:18:58.533Z,2.70
2022-12-07T19:21:25.100Z,2.43
2022-12-07T19:23:51.716Z,2.60
2022-12-07T19:26:19.782Z,2.80
2022-12-07T19:28:46.320Z,2.43
2022-12-07T19:31:12.872Z,1.90
2022-12-07T19:33:39.983Z,2.80
2022-12-07T19:36:07.175Z,2.30
2022-12-07T19:38:34.776Z,2.30
2022-12-07T19:41:05.231Z,3.27
2022-12-07T19:43:34.865Z,2.50
2022-12-07T19:46:04.818Z,2.13
2022-12-07T19:48:31.416Z,2.60
2022-12-07T19:51:02.490Z,2.53
2022-12-07T19:53:32.308Z,2.50
2022-12-07T19:55:58.877Z,2.43
2022-12-07T19:58:25.467Z,2.80
2022-12-07T20:00:53.449Z,2.60
2022-12-07T20:03:20.203Z,2.70
2022-12-07T20:05:46.755Z,2.97
2022-12-07T20:08:13.363Z,2.37
2022-12-07T20:10:40.227Z,3.00
2022-12-07T20:13:25.258Z,2.50
2022-12-07T20:16:01.792Z,2.37
2022-12-07T20:18:38.029Z,2.20
2022-12-07T20:21:04.828Z,2.43
2022-12-07T20:23:31.374Z,2.60
2022-12-07T20:26:02.073Z,2.47
2022-12-07T20:28:29.701Z,2.50
2022-12-07T20:30:57.864Z,2.63
2022-12-07T20:33:24.537Z,2.27
2022-12-07T20:35:51.085Z,2.50
2022-12-07T20:38:17.848Z,2.40
2022-12-07T20:40:48.078Z,2.93
2022-12-07T20:43:14.837Z,2.40
2022-12-07T20:45:44.732Z,2.57
2022-12-07T20:48:12.980Z,2.50
2022-12-07T20:50:42.360Z,2.57
2022-12-07T20:53:09.204Z,2.88
2022-12-07T20:55:36.058Z,2.60
2022-12-07T20:58:02.694Z,3.00
2022-12-07T21:00:29.235Z,2.30
2022-12-07T21:02:57.172Z,2.70
2022-12-07T21:05:25.154Z,2.57
2022-12-07T21:07:51.768Z,2.80
2022-12-07T21:10:18.803Z,2.73
2022-12-07T21:12:45.346Z,2.70
2022-12-07T21:15:12.470Z,3.30
2022-12-07T21:17:39.071Z,2.77
2022-12-07T21:20:07.787Z,2.40
2022-12-07T21:22:36.953Z,2.80
2022-12-07T21:25:04.143Z,2.63
2022-12-07T21:27:30.872Z,2.43
2022-12-07T21:29:57.372Z,3.20
2022-12-07T21:32:23.965Z,3.07
2022-12-07T21:34:50.523Z,2.80
2022-12-07T21:37:17.136Z,3.10
2022-12-07T21:39:45.029Z,2.83
2022-12-07T21:42:11.546Z,2.87
2022-12-07T21:44:38.203Z,2.70
2022-12-07T21:47:05.177Z,2.87
2022-12-07T21:49:34.607Z,3.10
2022-12-07T21:52:01.189Z,2.55
2022-12-07T21:54:27.799Z,3.10
2022-12-07T21:56:55.724Z,3.50
2022-12-07T21:59:22.783Z,2.90
2022-12-07T22:01:50.028Z,3.03
2022-12-07T22:04:18.982Z,3.20
2022-12-07T22:06:46.510Z,4.03
2022-12-07T22:09:13.653Z,2.90
2022-12-07T22:11:40.457Z,2.80
2022-12-07T22:14:28.706Z,3.30
2022-12-07T22:16:55.499Z,2.90
2022-12-07T22:19:22.095Z,3.33
2022-12-07T22:21:48.665Z,3.60
2022-12-07T22:24:15.458Z,3.30
2022-12-07T22:26:43.033Z,3.23
2022-12-07T22:29:11.635Z,3.10
2022-12-07T22:31:38.759Z,3.23
2022-12-07T22:34:05.349Z,3.27
2022-12-07T22:36:32.224Z,2.87
2022-12-07T22:39:00.513Z,2.83
2022-12-07T22:41:29.057Z,3.20
2022-12-07T22:43:56.070Z,2.67
2022-12-07T22:46:24.654Z,2.77
2022-12-07T22:48:52.091Z,2.93
2022-12-07T22:51:23.219Z,2.90
2022-12-07T22:53:50.362Z,3.13
2022-12-07T22:56:17.085Z,3.17
2022-12-07T22:58:44.075Z,3.70
2022-12-07T23:01:11.750Z,2.53
2022-12-07T23:03:39.887Z,3.40
2022-12-07T23:06:09.136Z,2.80
2022-12-07T23:08:36.352Z,3.22
2022-12-07T23:11:04.216Z,2.90
2022-12-07T23:13:35.539Z,3.20
2022-12-07T23:16:10.985Z,2.80
2022-12-07T23:18:39.350Z,2.93
2022-12-07T23:21:06.143Z,2.50
2022-12-07T23:23:32.979Z,2.73
2022-12-07T23:26:02.241Z,2.77
2022-12-07T23:28:28.811Z,3.47
2022-12-07T23:31:01.826Z,2.87
2022-12-07T23:33:28.457Z,2.53
2022-12-07T23:35:56.377Z,3.00
2022-12-07T23:38:22.939Z,2.57
2022-12-07T23:40:49.507Z,2.90
2022-12-07T23:43:16.029Z,3.10
2022-12-07T23:45:45.189Z,2.80
2022-12-07T23:48:11.730Z,3.00
2022-12-07T23:50:38.269Z,2.83
2022-12-07T23:53:06.178Z,2.73
2022-12-07T23:55:32.717Z,2.80
2022-12-07T23:57:59.261Z,2.53
